sensor_id;sensor_type;location;lat;lon;timestamp;P1;durP1;ratioP1;P2;durP2;ratioP2
24147;SDS011;12309;51.450;-2.624;2023-04-06T00:01:40;8.53;;;5.40;;
24147;SDS011;12309;51.450;-2.624;2023-04-06T00:04:06;6.93;;;5.13;;
24147;SDS011;12309;51.450;-2.624;2023-04-06T00:06:32;8.07;;;5.20;;
24147;SDS011;12309;51.450;-2.624;2023-04-06T00:08:58;6.67;;;5.10;;
24147;SDS011;12309;51.450;-2.624;2023-04-06T00:11:25;8.13;;;4.50;;
24147;SDS011;12309;51.450;-2.624;2023-04-06T00:13:50;5.63;;;4.43;;
24147;SDS011;12309;51.450;-2.624;2023-04-06T00:16:16;6.03;;;4.43;;
24147;SDS011;12309;51.450;-2.624;2023-04-06T00:18:42;5.70;;;4.80;;
24147;SDS011;12309;51.450;-2.624;2023-04-06T00:21:07;5.67;;;3.90;;
24147;SDS011;12309;51.450;-2.624;2023-04-06T00:23:33;5.53;;;4.13;;
24147;SDS011;12309;51.450;-2.624;2023-04-06T00:25:59;6.60;;;4.37;;
24147;SDS011;12309;51.450;-2.624;2023-04-06T00:28:25;5.70;;;3.80;;
24147;SDS011;12309;51.450;-2.624;2023-04-06T00:30:54;5.43;;;4.27;;
24147;SDS011;12309;51.450;-2.624;2023-04-06T00:33:20;5.27;;;4.07;;
24147;SDS011;12309;51.450;-2.624;2023-04-06T00:35:46;8.17;;;3.83;;
24147;SDS011;12309;51.450;-2.624;2023-04-06T00:38:12;5.60;;;4.23;;
24147;SDS011;12309;51.450;-2.624;2023-04-06T00:40:38;7.20;;;4.50;;
24147;SDS011;12309;51.450;-2.624;2023-04-06T00:43:06;6.40;;;4.63;;
24147;SDS011;12309;51.450;-2.624;2023-04-06T00:45:34;7.10;;;4.50;;
24147;SDS011;12309;51.450;-2.624;2023-04-06T00:47:59;5.47;;;4.57;;
24147;SDS011;12309;51.450;-2.624;2023-04-06T00:50:26;7.40;;;4.60;;
24147;SDS011;12309;51.450;-2.624;2023-04-06T00:52:52;7.73;;;5.07;;
24147;SDS011;12309;51.450;-2.624;2023-04-06T00:55:19;6.17;;;4.90;;
24147;SDS011;12309;51.450;-2.624;2023-04-06T00:57:45;7.00;;;4.30;;
24147;SDS011;12309;51.450;-2.624;2023-04-06T01:00:12;6.37;;;4.40;;
24147;SDS011;12309;51.450;-2.624;2023-04-06T01:02:38;4.90;;;4.20;;
24147;SDS011;12309;51.450;-2.624;2023-04-06T01:05:04;6.50;;;4.30;;
24147;SDS011;12309;51.450;-2.624;2023-04-06T01:07:30;6.97;;;4.43;;
24147;SDS011;12309;51.450;-2.624;2023-04-06T01:09:56;6.43;;;3.67;;
24147;SDS011;12309;51.450;-2.624;2023-04-06T01:12:22;4.43;;;3.90;;
24147;SDS011;12309;51.450;-2.624;2023-04-06T01:14:48;5.33;;;3.67;;
24147;SDS011;12309;51.450;-2.624;2023-04-06T01:17:14;6.73;;;3.60;;
24147;SDS011;12309;51.450;-2.624;2023-04-06T01:19:40;5.90;;;3.50;;
24147;SDS011;12309;51.450;-2.624;2023-04-06T01:22:06;5.17;;;2.63;;
24147;SDS011;12309;51.450;-2.624;2023-04-06T01:24:32;3.37;;;3.07;;
24147;SDS011;12309;51.450;-2.624;2023-04-06T01:26:57;4.53;;;3.10;;
24147;SDS011;12309;51.450;-2.624;2023-04-06T01:29:23;4.83;;;3.00;;
24147;SDS011;12309;51.450;-2.624;2023-04-06T01:31:49;5.03;;;2.63;;
24147;SDS011;12309;51.450;-2.624;2023-04-06T01:34:15;4.40;;;3.10;;
24147;SDS011;12309;51.450;-2.624;2023-04-06T01:36:41;4.20;;;3.20;;
24147;SDS011;12309;51.450;-2.624;2023-04-06T01:39:06;6.50;;;3.70;;
24147;SDS011;12309;51.450;-2.624;2023-04-06T01:41:32;4.43;;;3.77;;
24147;SDS011;12309;51.450;-2.624;2023-04-06T01:43:58;4.27;;;3.47;;
24147;SDS011;12309;51.450;-2.624;2023-04-06T01:46:23;3.90;;;3.40;;
24147;SDS011;12309;51.450;-2.624;2023-04-06T01:48:49;3.87;;;3.30;;
24147;SDS011;12309;51.450;-2.624;2023-04-06T01:51:15;9.10;;;3.77;;
24147;SDS011;12309;51.450;-2.624;2023-04-06T01:53:40;2.80;;;2.30;;
24147;SDS011;12309;51.450;-2.624;2023-04-06T01:56:06;2.57;;;2.30;;
24147;SDS011;12309;51.450;-2.624;2023-04-06T01:58:32;2.40;;;2.20;;
24147;SDS011;12309;51.450;-2.624;2023-04-06T02:00:58;3.03;;;2.53;;
24147;SDS011;12309;51.450;-2.624;2023-04-06T02:03:24;2.60;;;2.30;;
24147;SDS011;12309;51.450;-2.624;2023-04-06T02:05:50;2.10;;;1.90;;
24147;SDS011;12309;51.450;-2.624;2023-04-06T02:08:15;1.90;;;1.80;;
24147;SDS011;12309;51.450;-2.624;2023-04-06T02:10:41;1.80;;;1.40;;
24147;SDS011;12309;51.450;-2.624;2023-04-06T02:13:06;1.53;;;1.10;;
24147;SDS011;12309;51.450;-2.624;2023-04-06T02:15:32;2.43;;;1.10;;
24147;SDS011;12309;51.450;-2.624;2023-04-06T02:17:58;2.70;;;1.10;;
24147;SDS011;12309;51.450;-2.624;2023-04-06T02:20:24;0.80;;;0.73;;
24147;SDS011;12309;51.450;-2.624;2023-04-06T02:22:50;3.63;;;0.80;;
24147;SDS011;12309;51.450;-2.624;2023-04-06T02:25:15;2.50;;;0.70;;
24147;SDS011;12309;51.450;-2.624;2023-04-06T02:27:41;5.03;;;1.20;;
24147;SDS011;12309;51.450;-2.624;2023-04-06T02:30:07;3.10;;;1.07;;
24147;SDS011;12309;51.450;-2.624;2023-04-06T02:32:33;1.20;;;0.83;;
24147;SDS011;12309;51.450;-2.624;2023-04-06T02:34:59;2.67;;;0.87;;
24147;SDS011;12309;51.450;-2.624;2023-04-06T02:37:25;2.53;;;0.73;;
24147;SDS011;12309;51.450;-2.624;2023-04-06T02:39:50;1.27;;;0.60;;
24147;SDS011;12309;51.450;-2.624;2023-04-06T02:42:16;3.13;;;0.83;;
24147;SDS011;12309;51.450;-2.624;2023-04-06T02:44:42;1.17;;;0.60;;
24147;SDS011;12309;51.450;-2.624;2023-04-06T02:47:08;4.83;;;0.90;;
24147;SDS011;12309;51.450;-2.624;2023-04-06T02:49:34;3.17;;;0.90;;
24147;SDS011;12309;51.450;-2.624;2023-04-06T02:51:59;4.67;;;1.00;;
24147;SDS011;12309;51.450;-2.624;2023-04-06T02:54:25;6.63;;;0.97;;
24147;SDS011;12309;51.450;-2.624;2023-04-06T02:56:51;5.07;;;0.80;;
24147;SDS011;12309;51.450;-2.624;2023-04-06T02:59:16;3.03;;;0.90;;
24147;SDS011;12309;51.450;-2.624;2023-04-06T03:01:42;2.33;;;0.73;;
24147;SDS011;12309;51.450;-2.624;2023-04-06T03:04:08;4.17;;;0.70;;
24147;SDS011;12309;51.450;-2.624;2023-04-06T03:06:33;2.67;;;0.60;;
24147;SDS011;12309;51.450;-2.624;2023-04-06T03:08:59;2.97;;;0.50;;
24147;SDS011;12309;51.450;-2.624;2023-04-06T03:11:25;1.43;;;0.47;;
24147;SDS011;12309;51.450;-2.624;2023-04-06T03:13:51;2.37;;;0.50;;
24147;SDS011;12309;51.450;-2.624;2023-04-06T03:16:17;2.73;;;0.67;;
24147;SDS011;12309;51.450;-2.624;2023-04-06T03:18:42;3.23;;;0.87;;
24147;SDS011;12309;51.450;-2.624;2023-04-06T03:21:10;2.90;;;0.60;;
24147;SDS011;12309;51.450;-2.624;2023-04-06T03:23:35;8.47;;;0.90;;
24147;SDS011;12309;51.450;-2.624;2023-04-06T03:26:01;3.33;;;0.60;;
24147;SDS011;12309;51.450;-2.624;2023-04-06T03:28:27;3.03;;;0.77;;
24147;SDS011;12309;51.450;-2.624;2023-04-06T03:30:53;2.53;;;0.60;;
24147;SDS011;12309;51.450;-2.624;2023-04-06T03:33:18;5.57;;;1.00;;
24147;SDS011;12309;51.450;-2.624;2023-04-06T03:35:44;6.50;;;1.20;;
24147;SDS011;12309;51.450;-2.624;2023-04-06T03:38:10;5.07;;;1.20;;
24147;SDS011;12309;51.450;-2.624;2023-04-06T03:40:36;8.37;;;1.57;;
24147;SDS011;12309;51.450;-2.624;2023-04-06T03:43:01;9.87;;;2.07;;
24147;SDS011;12309;51.450;-2.624;2023-04-06T03:45:27;10.53;;;2.20;;
24147;SDS011;12309;51.450;-2.624;2023-04-06T03:47:53;15.40;;;2.40;;
24147;SDS011;12309;51.450;-2.624;2023-04-06T03:50:18;10.20;;;2.13;;
24147;SDS011;12309;51.450;-2.624;2023-04-06T03:52:44;13.87;;;2.47;;
24147;SDS011;12309;51.450;-2.624;2023-04-06T03:55:10;14.07;;;2.53;;
24147;SDS011;12309;51.450;-2.624;2023-04-06T03:57:36;14.30;;;2.43;;
24147;SDS011;12309;51.450;-2.624;2023-04-06T04:00:02;13.50;;;2.60;;
24147;SDS011;12309;51.450;-2.624;2023-04-06T04:02:29;13.93;;;2.43;;
24147;SDS011;12309;51.450;-2.624;2023-04-06T04:04:55;13.73;;;2.60;;
24147;SDS011;12309;51.450;-2.624;2023-04-06T04:07:20;16.97;;;2.77;;
24147;SDS011;12309;51.450;-2.624;2023-04-06T04:09:46;19.40;;;3.07;;
24147;SDS011;12309;51.450;-2.624;2023-04-06T04:12:12;12.37;;;2.30;;
24147;SDS011;12309;51.450;-2.624;2023-04-06T04:14:39;15.67;;;2.60;;
24147;SDS011;12309;51.450;-2.624;2023-04-06T04:17:05;14.07;;;2.30;;
24147;SDS011;12309;51.450;-2.624;2023-04-06T04:19:31;21.10;;;2.60;;
24147;SDS011;12309;51.450;-2.624;2023-04-06T04:21:56;15.13;;;2.60;;
24147;SDS011;12309;51.450;-2.624;2023-04-06T04:24:22;18.57;;;2.93;;
24147;SDS011;12309;51.450;-2.624;2023-04-06T04:26:48;13.73;;;2.53;;
24147;SDS011;12309;51.450;-2.624;2023-04-06T04:29:14;21.70;;;3.03;;
24147;SDS011;12309;51.450;-2.624;2023-04-06T04:31:40;24.10;;;3.37;;
24147;SDS011;12309;51.450;-2.624;2023-04-06T04:34:05;18.37;;;3.00;;
24147;SDS011;12309;51.450;-2.624;2023-04-06T04:36:31;22.10;;;3.27;;
24147;SDS011;12309;51.450;-2.624;2023-04-06T04:38:57;22.60;;;3.37;;
24147;SDS011;12309;51.450;-2.624;2023-04-06T04:41:23;21.37;;;3.17;;
24147;SDS011;12309;51.450;-2.624;2023-04-06T04:43:49;25.00;;;3.33;;
24147;SDS011;12309;51.450;-2.624;2023-04-06T04:46:14;28.73;;;3.13;;
24147;SDS011;12309;51.450;-2.624;2023-04-06T04:48:40;16.90;;;2.10;;
24147;SDS011;12309;51.450;-2.624;2023-04-06T04:51:06;15.23;;;2.43;;
24147;SDS011;12309;51.450;-2.624;2023-04-06T04:53:31;17.00;;;2.80;;
24147;SDS011;12309;51.450;-2.624;2023-04-06T04:55:57;22.20;;;2.80;;
24147;SDS011;12309;51.450;-2.624;2023-04-06T04:58:22;18.33;;;2.73;;
24147;SDS011;12309;51.450;-2.624;2023-04-06T05:00:48;14.07;;;2.37;;
24147;SDS011;12309;51.450;-2.624;2023-04-06T05:03:17;9.23;;;1.73;;
24147;SDS011;12309;51.450;-2.624;2023-04-06T05:05:46;16.30;;;2.67;;
24147;SDS011;12309;51.450;-2.624;2023-04-06T05:08:12;18.10;;;3.00;;
24147;SDS011;12309;51.450;-2.624;2023-04-06T05:10:37;20.33;;;3.50;;
24147;SDS011;12309;51.450;-2.624;2023-04-06T05:13:03;22.63;;;3.90;;
24147;SDS011;12309;51.450;-2.624;2023-04-06T05:15:28;25.80;;;3.97;;
24147;SDS011;12309;51.450;-2.624;2023-04-06T05:17:54;21.67;;;3.60;;
24147;SDS011;12309;51.450;-2.624;2023-04-06T05:20:20;25.13;;;4.40;;
24147;SDS011;12309;51.450;-2.624;2023-04-06T05:22:46;28.63;;;4.47;;
24147;SDS011;12309;51.450;-2.624;2023-04-06T05:25:12;24.53;;;4.63;;
24147;SDS011;12309;51.450;-2.624;2023-04-06T05:27:38;32.13;;;4.07;;
24147;SDS011;12309;51.450;-2.624;2023-04-06T05:30:04;23.73;;;4.60;;
24147;SDS011;12309;51.450;-2.624;2023-04-06T05:32:31;35.57;;;5.27;;
24147;SDS011;12309;51.450;-2.624;2023-04-06T05:34:56;26.20;;;4.60;;
24147;SDS011;12309;51.450;-2.624;2023-04-06T05:37:22;23.20;;;4.63;;
24147;SDS011;12309;51.450;-2.624;2023-04-06T05:39:48;21.17;;;4.23;;
24147;SDS011;12309;51.450;-2.624;2023-04-06T05:42:14;20.57;;;4.27;;
24147;SDS011;12309;51.450;-2.624;2023-04-06T05:44:40;23.13;;;5.00;;
24147;SDS011;12309;51.450;-2.624;2023-04-06T05:47:06;23.20;;;4.93;;
24147;SDS011;12309;51.450;-2.624;2023-04-06T05:49:32;21.63;;;6.00;;
24147;SDS011;12309;51.450;-2.624;2023-04-06T05:51:58;23.70;;;6.53;;
24147;SDS011;12309;51.450;-2.624;2023-04-06T05:54:23;30.17;;;6.40;;
24147;SDS011;12309;51.450;-2.624;2023-04-06T05:56:49;25.03;;;7.10;;
24147;SDS011;12309;51.450;-2.624;2023-04-06T05:59:15;24.77;;;7.27;;
24147;SDS011;12309;51.450;-2.624;2023-04-06T06:01:40;28.30;;;7.50;;
24147;SDS011;12309;51.450;-2.624;2023-04-06T06:04:06;23.17;;;6.30;;
24147;SDS011;12309;51.450;-2.624;2023-04-06T06:06:31;22.97;;;7.03;;
24147;SDS011;12309;51.450;-2.624;2023-04-06T06:08:57;24.03;;;6.83;;
24147;SDS011;12309;51.450;-2.624;2023-04-06T06:11:26;18.03;;;5.67;;
24147;SDS011;12309;51.450;-2.624;2023-04-06T06:13:52;20.80;;;6.57;;
24147;SDS011;12309;51.450;-2.624;2023-04-06T06:16:18;26.67;;;6.40;;
24147;SDS011;12309;51.450;-2.624;2023-04-06T06:18:44;17.00;;;5.57;;
24147;SDS011;12309;51.450;-2.624;2023-04-06T06:21:11;18.93;;;5.70;;
24147;SDS011;12309;51.450;-2.624;2023-04-06T06:23:37;24.03;;;6.70;;
24147;SDS011;12309;51.450;-2.624;2023-04-06T06:26:03;20.37;;;6.53;;
24147;SDS011;12309;51.450;-2.624;2023-04-06T06:28:29;28.97;;;7.43;;
24147;SDS011;12309;51.450;-2.624;2023-04-06T06:30:55;25.17;;;8.00;;
24147;SDS011;12309;51.450;-2.624;2023-04-06T06:33:21;24.40;;;8.77;;
24147;SDS011;12309;51.450;-2.624;2023-04-06T06:35:47;21.77;;;9.33;;
24147;SDS011;12309;51.450;-2.624;2023-04-06T06:38:12;31.57;;;10.27;;
24147;SDS011;12309;51.450;-2.624;2023-04-06T06:40:39;31.57;;;10.30;;
24147;SDS011;12309;51.450;-2.624;2023-04-06T06:43:05;26.73;;;11.13;;
24147;SDS011;12309;51.450;-2.624;2023-04-06T06:45:31;27.30;;;11.10;;
24147;SDS011;12309;51.450;-2.624;2023-04-06T06:47:57;31.27;;;11.63;;
24147;SDS011;12309;51.450;-2.624;2023-04-06T06:50:22;31.67;;;11.20;;
24147;SDS011;12309;51.450;-2.624;2023-04-06T06:52:48;29.50;;;9.03;;
24147;SDS011;12309;51.450;-2.624;2023-04-06T06:55:14;34.07;;;10.87;;
24147;SDS011;12309;51.450;-2.624;2023-04-06T06:57:40;27.23;;;10.00;;
24147;SDS011;12309;51.450;-2.624;2023-04-06T07:00:07;25.73;;;10.17;;
24147;SDS011;12309;51.450;-2.624;2023-04-06T07:02:34;21.10;;;9.53;;
24147;SDS011;12309;51.450;-2.624;2023-04-06T07:05:00;32.10;;;9.47;;
24147;SDS011;12309;51.450;-2.624;2023-04-06T07:07:26;23.57;;;8.77;;
24147;SDS011;12309;51.450;-2.624;2023-04-06T07:09:52;25.20;;;8.77;;
24147;SDS011;12309;51.450;-2.624;2023-04-06T07:12:18;18.20;;;7.93;;
24147;SDS011;12309;51.450;-2.624;2023-04-06T07:14:44;19.30;;;7.43;;
24147;SDS011;12309;51.450;-2.624;2023-04-06T07:17:09;19.67;;;6.77;;
24147;SDS011;12309;51.450;-2.624;2023-04-06T07:19:36;16.60;;;5.67;;
24147;SDS011;12309;51.450;-2.624;2023-04-06T07:22:01;20.90;;;6.63;;
24147;SDS011;12309;51.450;-2.624;2023-04-06T07:24:28;16.70;;;5.90;;
24147;SDS011;12309;51.450;-2.624;2023-04-06T07:26:54;13.33;;;4.83;;
24147;SDS011;12309;51.450;-2.624;2023-04-06T07:29:21;18.43;;;5.10;;
24147;SDS011;12309;51.450;-2.624;2023-04-06T07:31:47;15.47;;;4.30;;
24147;SDS011;12309;51.450;-2.624;2023-04-06T07:34:14;13.70;;;3.87;;
24147;SDS011;12309;51.450;-2.624;2023-04-06T07:36:40;15.03;;;4.57;;
24147;SDS011;12309;51.450;-2.624;2023-04-06T07:39:06;16.83;;;4.80;;
24147;SDS011;12309;51.450;-2.624;2023-04-06T07:41:32;13.50;;;5.83;;
24147;SDS011;12309;51.450;-2.624;2023-04-06T07:43:58;13.77;;;5.40;;
24147;SDS011;12309;51.450;-2.624;2023-04-06T07:46:23;19.30;;;6.27;;
24147;SDS011;12309;51.450;-2.624;2023-04-06T07:48:50;17.73;;;7.50;;
24147;SDS011;12309;51.450;-2.624;2023-04-06T07:51:16;14.53;;;7.10;;
24147;SDS011;12309;51.450;-2.624;2023-04-06T07:53:43;17.40;;;7.60;;
24147;SDS011;12309;51.450;-2.624;2023-04-06T07:56:09;15.30;;;7.67;;
24147;SDS011;12309;51.450;-2.624;2023-04-06T07:58:35;15.93;;;6.80;;
24147;SDS011;12309;51.450;-2.624;2023-04-06T08:01:01;13.20;;;6.07;;
24147;SDS011;12309;51.450;-2.624;2023-04-06T08:03:27;15.30;;;5.00;;
24147;SDS011;12309;51.450;-2.624;2023-04-06T08:05:52;12.93;;;4.97;;
24147;SDS011;12309;51.450;-2.624;2023-04-06T08:08:18;18.50;;;5.47;;
24147;SDS011;12309;51.450;-2.624;2023-04-06T08:10:46;11.77;;;4.80;;
24147;SDS011;12309;51.450;-2.624;2023-04-06T08:13:14;14.80;;;4.60;;
24147;SDS011;12309;51.450;-2.624;2023-04-06T08:15:41;14.60;;;4.77;;
24147;SDS011;12309;51.450;-2.624;2023-04-06T08:18:07;16.97;;;4.77;;
24147;SDS011;12309;51.450;-2.624;2023-04-06T08:20:33;16.63;;;5.03;;
24147;SDS011;12309;51.450;-2.624;2023-04-06T08:22:59;16.92;;;5.30;;
24147;SDS011;12309;51.450;-2.624;2023-04-06T08:25:25;14.40;;;5.63;;
24147;SDS011;12309;51.450;-2.624;2023-04-06T08:27:51;16.08;;;5.35;;
24147;SDS011;12309;51.450;-2.624;2023-04-06T08:30:17;15.95;;;5.20;;
24147;SDS011;12309;51.450;-2.624;2023-04-06T08:32:44;15.05;;;4.68;;
24147;SDS011;12309;51.450;-2.624;2023-04-06T08:35:12;14.57;;;5.45;;
24147;SDS011;12309;51.450;-2.624;2023-04-06T08:37:38;12.98;;;4.82;;
24147;SDS011;12309;51.450;-2.624;2023-04-06T08:40:04;8.95;;;3.45;;
24147;SDS011;12309;51.450;-2.624;2023-04-06T08:42:33;13.13;;;3.53;;
24147;SDS011;12309;51.450;-2.624;2023-04-06T08:45:05;7.32;;;2.90;;
24147;SDS011;12309;51.450;-2.624;2023-04-06T08:47:32;14.73;;;2.85;;
24147;SDS011;12309;51.450;-2.624;2023-04-06T08:49:59;7.03;;;2.20;;
24147;SDS011;12309;51.450;-2.624;2023-04-06T08:52:29;9.32;;;2.60;;
24147;SDS011;12309;51.450;-2.624;2023-04-06T08:54:57;8.60;;;2.55;;
24147;SDS011;12309;51.450;-2.624;2023-04-06T08:57:22;17.13;;;3.60;;
24147;SDS011;12309;51.450;-2.624;2023-04-06T08:59:49;10.90;;;2.47;;
24147;SDS011;12309;51.450;-2.624;2023-04-06T09:02:17;15.38;;;3.03;;
24147;SDS011;12309;51.450;-2.624;2023-04-06T09:04:44;8.15;;;2.33;;
24147;SDS011;12309;51.450;-2.624;2023-04-06T09:07:13;12.73;;;2.58;;
24147;SDS011;12309;51.450;-2.624;2023-04-06T09:09:40;15.25;;;2.80;;
24147;SDS011;12309;51.450;-2.624;2023-04-06T09:12:21;16.00;;;2.63;;
24147;SDS011;12309;51.450;-2.624;2023-04-06T09:14:47;9.07;;;2.10;;
24147;SDS011;12309;51.450;-2.624;2023-04-06T09:17:20;4.30;;;1.58;;
24147;SDS011;12309;51.450;-2.624;2023-04-06T09:19:52;8.32;;;1.75;;
24147;SDS011;12309;51.450;-2.624;2023-04-06T09:22:19;8.23;;;2.40;;
24147;SDS011;12309;51.450;-2.624;2023-04-06T09:24:49;9.45;;;2.00;;
24147;SDS011;12309;51.450;-2.624;2023-04-06T09:27:15;10.57;;;2.00;;
24147;SDS011;12309;51.450;-2.624;2023-04-06T09:29:42;6.15;;;1.20;;
24147;SDS011;12309;51.450;-2.624;2023-04-06T09:32:10;6.82;;;1.60;;
24147;SDS011;12309;51.450;-2.624;2023-04-06T09:34:37;9.55;;;1.55;;
24147;SDS011;12309;51.450;-2.624;2023-04-06T09:37:13;11.82;;;2.05;;
24147;SDS011;12309;51.450;-2.624;2023-04-06T09:39:45;5.95;;;1.30;;
24147;SDS011;12309;51.450;-2.624;2023-04-06T09:42:22;6.25;;;1.50;;
24147;SDS011;12309;51.450;-2.624;2023-04-06T09:44:50;6.60;;;1.48;;
24147;SDS011;12309;51.450;-2.624;2023-04-06T09:47:16;6.38;;;1.55;;
24147;SDS011;12309;51.450;-2.624;2023-04-06T09:49:42;8.25;;;1.73;;
24147;SDS011;12309;51.450;-2.624;2023-04-06T09:52:10;8.75;;;1.77;;
24147;SDS011;12309;51.450;-2.624;2023-04-06T09:54:37;8.50;;;1.75;;
24147;SDS011;12309;51.450;-2.624;2023-04-06T09:57:06;9.00;;;1.85;;
24147;SDS011;12309;51.450;-2.624;2023-04-06T10:04:53;9.70;;;2.05;;
24147;SDS011;12309;51.450;-2.624;2023-04-06T10:07:29;10.40;;;2.38;;
24147;SDS011;12309;51.450;-2.624;2023-04-06T10:09:56;14.82;;;2.40;;
24147;SDS011;12309;51.450;-2.624;2023-04-06T10:12:23;11.10;;;2.38;;
24147;SDS011;12309;51.450;-2.624;2023-04-06T10:14:49;14.48;;;2.38;;
24147;SDS011;12309;51.450;-2.624;2023-04-06T10:17:15;13.38;;;2.70;;
24147;SDS011;12309;51.450;-2.624;2023-04-06T10:22:06;18.92;;;3.70;;
24147;SDS011;12309;51.450;-2.624;2023-04-06T10:24:35;17.85;;;3.78;;
24147;SDS011;12309;51.450;-2.624;2023-04-06T10:27:01;13.10;;;3.63;;
24147;SDS011;12309;51.450;-2.624;2023-04-06T10:29:28;15.68;;;4.20;;
24147;SDS011;12309;51.450;-2.624;2023-04-06T10:32:05;12.88;;;3.20;;
24147;SDS011;12309;51.450;-2.624;2023-04-06T10:34:34;17.27;;;4.07;;
24147;SDS011;12309;51.450;-2.624;2023-04-06T10:37:10;14.38;;;3.35;;
24147;SDS011;12309;51.450;-2.624;2023-04-06T10:39:46;12.40;;;3.38;;
24147;SDS011;12309;51.450;-2.624;2023-04-06T10:42:23;10.00;;;2.35;;
24147;SDS011;12309;51.450;-2.624;2023-04-06T10:44:50;8.88;;;1.95;;
24147;SDS011;12309;51.450;-2.624;2023-04-06T10:47:17;18.15;;;3.22;;
24147;SDS011;12309;51.450;-2.624;2023-04-06T10:49:43;18.02;;;3.40;;
24147;SDS011;12309;51.450;-2.624;2023-04-06T10:52:08;11.85;;;2.72;;
24147;SDS011;12309;51.450;-2.624;2023-04-06T10:54:35;13.80;;;2.35;;
24147;SDS011;12309;51.450;-2.624;2023-04-06T10:57:06;15.27;;;2.50;;
24147;SDS011;12309;51.450;-2.624;2023-04-06T10:59:32;18.77;;;3.05;;
24147;SDS011;12309;51.450;-2.624;2023-04-06T11:01:57;9.65;;;2.25;;
24147;SDS011;12309;51.450;-2.624;2023-04-06T11:04:24;7.70;;;1.88;;
24147;SDS011;12309;51.450;-2.624;2023-04-06T11:06:50;12.07;;;2.25;;
24147;SDS011;12309;51.450;-2.624;2023-04-06T11:11:54;4.53;;;0.88;;
24147;SDS011;12309;51.450;-2.624;2023-04-06T11:14:21;12.15;;;1.13;;
24147;SDS011;12309;51.450;-2.624;2023-04-06T11:16:47;3.13;;;0.90;;
24147;SDS011;12309;51.450;-2.624;2023-04-06T11:19:16;4.80;;;1.02;;
24147;SDS011;12309;51.450;-2.624;2023-04-06T11:21:45;7.70;;;1.73;;
24147;SDS011;12309;51.450;-2.624;2023-04-06T11:24:22;9.85;;;2.00;;
24147;SDS011;12309;51.450;-2.624;2023-04-06T11:26:54;10.07;;;2.50;;
24147;SDS011;12309;51.450;-2.624;2023-04-06T11:29:22;7.93;;;2.28;;
24147;SDS011;12309;51.450;-2.624;2023-04-06T11:31:58;12.45;;;2.30;;
24147;SDS011;12309;51.450;-2.624;2023-04-06T11:34:25;10.23;;;2.47;;
24147;SDS011;12309;51.450;-2.624;2023-04-06T11:36:59;9.48;;;2.15;;
24147;SDS011;12309;51.450;-2.624;2023-04-06T11:39:28;14.95;;;2.80;;
24147;SDS011;12309;51.450;-2.624;2023-04-06T11:41:57;12.05;;;3.15;;
24147;SDS011;12309;51.450;-2.624;2023-04-06T11:44:34;10.45;;;1.92;;
24147;SDS011;12309;51.450;-2.624;2023-04-06T11:47:05;9.13;;;2.17;;
24147;SDS011;12309;51.450;-2.624;2023-04-06T11:49:33;10.90;;;2.05;;
24147;SDS011;12309;51.450;-2.624;2023-04-06T11:52:01;6.20;;;1.75;;
24147;SDS011;12309;51.450;-2.624;2023-04-06T11:54:34;5.68;;;1.60;;
24147;SDS011;12309;51.450;-2.624;2023-04-06T11:57:02;6.88;;;1.50;;
24147;SDS011;12309;51.450;-2.624;2023-04-06T11:59:28;7.32;;;1.48;;
24147;SDS011;12309;51.450;-2.624;2023-04-06T12:01:55;8.07;;;1.63;;
24147;SDS011;12309;51.450;-2.624;2023-04-06T12:04:21;7.28;;;2.10;;
24147;SDS011;12309;51.450;-2.624;2023-04-06T12:06:47;12.32;;;2.05;;
24147;SDS011;12309;51.450;-2.624;2023-04-06T12:09:13;10.55;;;2.22;;
24147;SDS011;12309;51.450;-2.624;2023-04-06T12:11:39;14.02;;;2.47;;
24147;SDS011;12309;51.450;-2.624;2023-04-06T12:14:05;7.63;;;1.70;;
24147;SDS011;12309;51.450;-2.624;2023-04-06T12:16:32;6.38;;;1.20;;
24147;SDS011;12309;51.450;-2.624;2023-04-06T12:18:59;11.40;;;2.22;;
24147;SDS011;12309;51.450;-2.624;2023-04-06T12:21:26;10.85;;;1.92;;
24147;SDS011;12309;51.450;-2.624;2023-04-06T12:23:53;10.57;;;2.33;;
24147;SDS011;12309;51.450;-2.624;2023-04-06T12:26:19;10.25;;;2.05;;
24147;SDS011;12309;51.450;-2.624;2023-04-06T12:28:45;9.20;;;1.92;;
24147;SDS011;12309;51.450;-2.624;2023-04-06T12:31:14;14.00;;;2.72;;
24147;SDS011;12309;51.450;-2.624;2023-04-06T12:33:40;11.20;;;2.40;;
24147;SDS011;12309;51.450;-2.624;2023-04-06T12:36:11;11.82;;;2.35;;
24147;SDS011;12309;51.450;-2.624;2023-04-06T12:38:41;8.68;;;1.77;;
24147;SDS011;12309;51.450;-2.624;2023-04-06T12:41:07;7.65;;;1.50;;
24147;SDS011;12309;51.450;-2.624;2023-04-06T12:43:33;6.18;;;1.10;;
24147;SDS011;12309;51.450;-2.624;2023-04-06T12:45:58;6.65;;;1.38;;
24147;SDS011;12309;51.450;-2.624;2023-04-06T12:48:25;8.00;;;1.33;;
24147;SDS011;12309;51.450;-2.624;2023-04-06T12:50:58;4.72;;;1.10;;
24147;SDS011;12309;51.450;-2.624;2023-04-06T12:53:25;3.10;;;0.82;;
24147;SDS011;12309;51.450;-2.624;2023-04-06T12:55:53;2.47;;;0.63;;
24147;SDS011;12309;51.450;-2.624;2023-04-06T12:58:19;1.45;;;0.80;;
24147;SDS011;12309;51.450;-2.624;2023-04-06T13:00:46;3.28;;;0.65;;
24147;SDS011;12309;51.450;-2.624;2023-04-06T13:03:12;1.98;;;0.57;;
24147;SDS011;12309;51.450;-2.624;2023-04-06T13:05:44;1.02;;;0.50;;
24147;SDS011;12309;51.450;-2.624;2023-04-06T13:08:10;2.20;;;0.40;;
24147;SDS011;12309;51.450;-2.624;2023-04-06T13:10:36;2.28;;;0.73;;
24147;SDS011;12309;51.450;-2.624;2023-04-06T13:13:02;3.20;;;0.60;;
24147;SDS011;12309;51.450;-2.624;2023-04-06T13:15:28;2.17;;;0.50;;
24147;SDS011;12309;51.450;-2.624;2023-04-06T13:17:53;2.25;;;0.40;;
24147;SDS011;12309;51.450;-2.624;2023-04-06T13:20:19;2.30;;;0.50;;
24147;SDS011;12309;51.450;-2.624;2023-04-06T13:22:45;1.30;;;0.40;;
24147;SDS011;12309;51.450;-2.624;2023-04-06T13:25:10;6.07;;;0.52;;
24147;SDS011;12309;51.450;-2.624;2023-04-06T13:27:36;3.28;;;0.65;;
24147;SDS011;12309;51.450;-2.624;2023-04-06T13:30:02;6.18;;;0.90;;
24147;SDS011;12309;51.450;-2.624;2023-04-06T13:32:28;6.55;;;1.00;;
24147;SDS011;12309;51.450;-2.624;2023-04-06T13:34:55;7.35;;;1.35;;
24147;SDS011;12309;51.450;-2.624;2023-04-06T13:37:21;5.28;;;0.93;;
24147;SDS011;12309;51.450;-2.624;2023-04-06T13:39:46;4.00;;;1.10;;
24147;SDS011;12309;51.450;-2.624;2023-04-06T13:42:12;1.80;;;0.60;;
24147;SDS011;12309;51.450;-2.624;2023-04-06T13:44:38;2.53;;;0.80;;
24147;SDS011;12309;51.450;-2.624;2023-04-06T13:47:03;8.30;;;1.10;;
24147;SDS011;12309;51.450;-2.624;2023-04-06T13:49:29;4.88;;;0.88;;
24147;SDS011;12309;51.450;-2.624;2023-04-06T13:51:55;10.07;;;3.05;;
24147;SDS011;12309;51.450;-2.624;2023-04-06T13:54:21;3.95;;;0.75;;
24147;SDS011;12309;51.450;-2.624;2023-04-06T13:56:46;5.22;;;1.05;;
24147;SDS011;12309;51.450;-2.624;2023-04-06T13:59:12;3.40;;;0.70;;
24147;SDS011;12309;51.450;-2.624;2023-04-06T14:01:38;3.60;;;1.02;;
24147;SDS011;12309;51.450;-2.624;2023-04-06T14:04:04;7.68;;;1.10;;
24147;SDS011;12309;51.450;-2.624;2023-04-06T14:06:29;5.40;;;1.15;;
24147;SDS011;12309;51.450;-2.624;2023-04-06T14:08:55;4.53;;;1.20;;
24147;SDS011;12309;51.450;-2.624;2023-04-06T14:11:21;5.88;;;1.10;;
24147;SDS011;12309;51.450;-2.624;2023-04-06T14:13:48;7.85;;;1.45;;
24147;SDS011;12309;51.450;-2.624;2023-04-06T14:16:14;11.10;;;1.95;;
24147;SDS011;12309;51.450;-2.624;2023-04-06T14:18:40;6.50;;;1.73;;
24147;SDS011;12309;51.450;-2.624;2023-04-06T14:21:05;6.78;;;1.45;;
24147;SDS011;12309;51.450;-2.624;2023-04-06T14:23:31;10.02;;;1.88;;
24147;SDS011;12309;51.450;-2.624;2023-04-06T14:26:01;4.88;;;1.48;;
24147;SDS011;12309;51.450;-2.624;2023-04-06T14:28:28;3.67;;;0.98;;
24147;SDS011;12309;51.450;-2.624;2023-04-06T14:30:54;9.07;;;1.60;;
24147;SDS011;12309;51.450;-2.624;2023-04-06T14:33:20;7.05;;;1.60;;
24147;SDS011;12309;51.450;-2.624;2023-04-06T14:35:45;7.75;;;1.90;;